Overview Statistics Trail Chart Weather Telemetry Raw packets
 

This is the latest recevied weather packets stored in our database for station/object AI5BL. If no packets are shown the sender has not sent any weather packets the latest 10 day(s).

<< 96 97 98 99 100 101 102 >>
Time Temp. Humidity Pressure Rain* Wind** Luminosity Snow
1787928519 29.44° C 79% 1019.8 hPa 0 mm - 161 W/m² -
1787928227 28.89° C 79% 1019.7 hPa 0 mm - 421 W/m² -
1787927917 28.89° C 79% 1019.8 hPa 0 mm - 427 W/m² -
1787927612 29.44° C 77% 1019.9 hPa 0 mm - 446 W/m² -
1787927307 28.89° C 80% 1019.9 hPa 0 mm - 378 W/m² -
1787927003 28.33° C 80% 1019.9 hPa 0 mm - 372 W/m² -
1787926702 27.78° C 83% 1019.9 hPa 0 mm - 232 W/m² -
1787926401 27.22° C 85% 1019.8 hPa 0 mm - 341 W/m² -
1787926095 26.67° C 86% 1019.9 hPa 0 mm - 335 W/m² -
1787925796 27.22° C 85% 1020.1 hPa 0 mm - 116 W/m² -
1787925494 27.22° C 85% 1019.8 hPa 0 mm - 295 W/m² -
1787925189 26.67° C 87% 1019.7 hPa 0 mm - 284 W/m² -
1787924888 26.67° C 88% 1019.8 hPa 0 mm - 132 W/m² -
1787924583 26.67° C 88% 1019.7 hPa 0 mm - 136 W/m² -
1787924278 26.11° C 90% 1019.6 hPa 0 mm - 219 W/m² -
1787923973 25.56° C 90% 1019.7 hPa 0 mm - 179 W/m² -
1787923673 25.56° C 94% 1019.7 hPa 0 mm - 155 W/m² -
1787923368 24.44° C 98% 1019.5 hPa 0 mm - 144 W/m² -
1787923063 24.44° C 99% 1019.6 hPa 0 mm - 127 W/m² -
1787922758 23.89° C 99% 1019.5 hPa 0 mm - 124 W/m² -
1787922457 23.33° C 99% 1019.6 hPa 0 mm - 114 W/m² -
1787922157 23.33° C 99% 1019.4 hPa 0 mm - 92 W/m² -
1787921855 23.33° C 99% 1019.6 hPa 0 mm - 104 W/m² -
1787921550 22.78° C 99% 1019.4 hPa 0 mm - 58 W/m² -
1787921250 22.78° C 99% 1019.5 hPa 0 mm - 55 W/m² -

* Rain latest hour (hover to see other rain measurements)
** Current wind speed in m/s (hover to see current wind gust speed)